createdAt,value
2018-05-11T00:01:58.663Z,11.65
2018-05-11T00:04:27.035Z,9.93
2018-05-11T00:06:55.427Z,10.32
2018-05-11T00:09:23.812Z,7.90
2018-05-11T00:11:52.184Z,9.65
2018-05-11T00:14:20.756Z,11.25
2018-05-11T00:16:49.135Z,15.70
2018-05-11T00:19:17.522Z,11.70
2018-05-11T00:21:52.053Z,11.50
2018-05-11T00:24:21.364Z,13.45
2018-05-11T00:26:49.927Z,11.12
2018-05-11T00:29:18.628Z,14.48
2018-05-11T00:31:47.149Z,12.77
2018-05-11T00:34:16.323Z,8.60
2018-05-11T00:36:45.456Z,9.77
2018-05-11T00:39:14.269Z,10.52
2018-05-11T00:41:42.641Z,13.75
2018-05-11T00:44:11.016Z,9.82
2018-05-11T00:46:39.396Z,9.00
2018-05-11T00:49:07.765Z,13.38
2018-05-11T00:51:36.572Z,13.85
2018-05-11T00:54:04.953Z,15.98
2018-05-11T00:56:33.332Z,12.30
2018-05-11T00:59:01.731Z,13.13
2018-05-11T01:01:30.108Z,16.37
2018-05-11T01:03:58.519Z,15.38
2018-05-11T01:06:27.657Z,14.93
2018-05-11T01:08:56.030Z,12.35
2018-05-11T01:11:24.430Z,20.48
2018-05-11T01:13:52.813Z,20.12
2018-05-11T01:16:21.205Z,23.45
2018-05-11T01:18:49.584Z,17.80
2018-05-11T01:21:18.136Z,16.15
2018-05-11T01:23:46.504Z,19.00
2018-05-11T01:26:14.878Z,15.30
2018-05-11T01:28:43.276Z,14.93
2018-05-11T01:31:11.654Z,13.88
2018-05-11T01:33:40.055Z,13.40
2018-05-11T01:36:08.428Z,19.85
2018-05-11T01:38:37.192Z,16.23
2018-05-11T01:41:05.560Z,12.70
2018-05-11T01:43:34.716Z,25.73
2018-05-11T01:46:03.125Z,15.93
2018-05-11T01:48:31.495Z,11.98
2018-05-11T01:51:00.652Z,15.90
2018-05-11T01:53:29.024Z,18.48
2018-05-11T01:55:57.593Z,17.12
2018-05-11T01:58:25.962Z,17.98
2018-05-11T02:00:54.342Z,18.40
2018-05-11T02:03:22.739Z,14.00
2018-05-11T02:05:51.111Z,19.80
2018-05-11T02:08:19.513Z,13.45
2018-05-11T02:10:47.971Z,14.15
2018-05-11T02:13:16.393Z,15.40
2018-05-11T02:15:45.532Z,12.27
2018-05-11T02:18:13.900Z,11.77
2018-05-11T02:20:42.289Z,14.00
2018-05-11T02:23:10.658Z,13.05
2018-05-11T02:25:39.054Z,17.33
2018-05-11T02:28:07.430Z,12.27
2018-05-11T02:30:36.113Z,18.58
2018-05-11T02:33:04.489Z,18.37
2018-05-11T02:35:32.861Z,12.07
2018-05-11T02:38:01.256Z,13.77
2018-05-11T02:40:29.645Z,23.42
2018-05-11T02:42:58.029Z,9.75
2018-05-11T02:45:26.404Z,10.80
2018-05-11T02:47:54.822Z,10.18
2018-05-11T02:50:23.964Z,14.35
2018-05-11T02:52:52.334Z,13.25
2018-05-11T02:55:20.920Z,21.42
2018-05-11T02:57:49.291Z,9.05
2018-05-11T03:00:17.701Z,19.12
2018-05-11T03:02:46.081Z,10.63
2018-05-11T03:05:14.988Z,7.85
2018-05-11T03:07:43.357Z,17.27
2018-05-11T03:10:11.732Z,19.17
2018-05-11T03:12:40.129Z,17.73
2018-05-11T03:15:09.273Z,10.40
2018-05-11T03:17:37.700Z,14.35
2018-05-11T03:20:06.069Z,9.85
2018-05-11T03:22:34.444Z,10.85
2018-05-11T03:25:02.822Z,9.43
2018-05-11T03:27:32.003Z,16.48
2018-05-11T03:30:00.455Z,12.73
2018-05-11T03:32:28.855Z,11.48
2018-05-11T03:34:57.284Z,16.55
2018-05-11T03:37:26.428Z,12.20
2018-05-11T03:39:54.798Z,7.72
2018-05-11T03:42:23.197Z,20.98
2018-05-11T03:44:51.580Z,14.50
2018-05-11T03:47:19.980Z,11.70
2018-05-11T03:49:48.348Z,14.70
2018-05-11T03:52:17.000Z,20.27
2018-05-11T03:54:45.389Z,9.43
2018-05-11T03:57:13.758Z,9.32
2018-05-11T03:59:42.139Z,9.75
2018-05-11T04:02:28.269Z,11.65
2018-05-11T04:05:14.485Z,11.98
2018-05-11T04:08:01.605Z,12.68
2018-05-11T04:10:30.768Z,9.85
2018-05-11T04:13:00.645Z,8.57
2018-05-11T04:15:29.048Z,11.02
2018-05-11T04:17:57.421Z,12.63
2018-05-11T04:20:25.837Z,14.15
2018-05-11T04:22:54.977Z,13.27
2018-05-11T04:25:23.348Z,12.35
2018-05-11T04:27:51.749Z,10.57
2018-05-11T04:30:20.191Z,13.73
2018-05-11T04:32:48.536Z,16.48
2018-05-11T04:35:16.912Z,10.30
2018-05-11T04:37:45.462Z,9.57
2018-05-11T04:40:13.884Z,11.27
2018-05-11T04:42:42.252Z,8.82
2018-05-11T04:45:10.662Z,9.30
2018-05-11T04:47:39.042Z,15.68
2018-05-11T04:50:07.524Z,5.95
2018-05-11T04:52:35.898Z,8.68
2018-05-11T04:55:05.060Z,8.10
2018-05-11T04:57:33.478Z,18.10
2018-05-11T05:00:01.861Z,13.55
2018-05-11T05:02:30.257Z,8.63
2018-05-11T05:04:58.632Z,17.37
2018-05-11T05:07:27.109Z,6.25
2018-05-11T05:09:55.429Z,10.60
2018-05-11T05:12:24.069Z,11.63
2018-05-11T05:14:52.384Z,13.27
2018-05-11T05:17:20.757Z,12.35
2018-05-11T05:19:49.188Z,7.65
2018-05-11T05:22:18.334Z,10.70
2018-05-11T05:24:46.732Z,18.58
2018-05-11T05:27:15.105Z,14.48
2018-05-11T05:29:43.793Z,9.10
2018-05-11T05:32:12.168Z,21.50
2018-05-11T05:34:40.537Z,9.23
2018-05-11T05:37:08.930Z,9.25
2018-05-11T05:39:37.301Z,5.65
2018-05-11T05:42:05.704Z,12.93
2018-05-11T05:44:34.840Z,17.87
2018-05-11T05:47:03.572Z,13.02
2018-05-11T05:49:31.948Z,13.23
2018-05-11T05:52:00.410Z,16.17
2018-05-11T05:54:29.511Z,16.23
2018-05-11T05:56:57.899Z,23.10
2018-05-11T05:59:26.316Z,12.00
2018-05-11T06:01:54.694Z,12.73
2018-05-11T06:04:23.225Z,10.88
2018-05-11T06:06:51.604Z,13.35
2018-05-11T06:09:19.973Z,26.95
2018-05-11T06:11:48.368Z,8.52
2018-05-11T06:14:16.744Z,12.52
2018-05-11T06:16:45.140Z,12.60
2018-05-11T06:19:13.516Z,17.30
2018-05-11T06:21:43.588Z,17.73
2018-05-11T06:24:11.968Z,18.37
2018-05-11T06:26:40.344Z,11.45
2018-05-11T06:29:08.744Z,22.00
2018-05-11T06:31:37.121Z,23.12
2018-05-11T06:34:05.516Z,19.50
2018-05-11T06:36:33.893Z,18.27
2018-05-11T06:39:02.709Z,18.12
2018-05-11T06:41:31.919Z,35.92
2018-05-11T06:44:00.280Z,18.27
2018-05-11T06:46:29.449Z,25.17
2018-05-11T06:48:57.837Z,17.58
2018-05-11T06:51:26.244Z,22.60
2018-05-11T06:53:55.395Z,17.12
2018-05-11T06:56:24.069Z,19.25
2018-05-11T06:58:52.522Z,44.30
2018-05-11T07:01:20.924Z,18.65
2018-05-11T07:03:49.334Z,32.55
2018-05-11T07:06:17.713Z,28.70
2018-05-11T07:08:46.136Z,32.25
2018-05-11T07:11:14.524Z,28.02
2018-05-11T07:13:43.119Z,28.25
2018-05-11T07:16:11.841Z,35.30
2018-05-11T07:18:40.221Z,30.33
2018-05-11T07:21:08.624Z,26.80
2018-05-11T07:23:37.772Z,30.00
2018-05-11T07:26:06.251Z,29.43
2018-05-11T07:28:34.640Z,30.73
2018-05-11T07:31:03.224Z,32.00
2018-05-11T07:33:31.605Z,41.20
2018-05-11T07:36:00.232Z,30.80
2018-05-11T07:38:29.404Z,37.43
2018-05-11T07:40:57.780Z,27.03
2018-05-11T07:43:26.369Z,40.00
2018-05-11T07:45:54.635Z,36.97
2018-05-11T07:48:24.821Z,33.47
2018-05-11T07:50:53.232Z,31.63
2018-05-11T07:53:21.614Z,29.73
2018-05-11T07:55:50.065Z,24.30
2018-05-11T07:58:18.446Z,26.07
2018-05-11T08:00:46.850Z,23.70
2018-05-11T08:03:15.233Z,23.83
2018-05-11T08:05:43.722Z,25.67
2018-05-11T08:08:12.884Z,33.90
2018-05-11T08:10:41.400Z,29.83
2018-05-11T08:13:09.810Z,29.70
2018-05-11T08:15:38.189Z,29.37
2018-05-11T08:18:06.594Z,28.87
2018-05-11T08:20:34.974Z,33.47
2018-05-11T08:23:03.728Z,32.57
2018-05-11T08:25:32.105Z,31.53
2018-05-11T08:28:00.480Z,28.37
2018-05-11T08:30:29.652Z,25.40
2018-05-11T08:32:58.045Z,34.60
2018-05-11T08:35:27.212Z,28.57
2018-05-11T08:37:55.622Z,24.00
2018-05-11T08:40:24.348Z,22.07
2018-05-11T08:42:52.734Z,25.63
2018-05-11T08:45:21.138Z,30.83
2018-05-11T08:47:50.716Z,25.47
2018-05-11T08:50:19.094Z,22.50
2018-05-11T08:52:47.493Z,23.77
2018-05-11T08:55:15.875Z,26.77
2018-05-11T08:57:44.338Z,17.40
2018-05-11T09:00:12.756Z,25.17
2018-05-11T09:02:41.914Z,24.93
2018-05-11T09:05:10.317Z,28.43
2018-05-11T09:07:38.729Z,18.13
2018-05-11T09:10:07.908Z,27.40
2018-05-11T09:12:36.277Z,31.90
2018-05-11T09:15:04.825Z,29.40
2018-05-11T09:17:33.225Z,31.23
2018-05-11T09:20:01.621Z,23.60
2018-05-11T09:22:30.797Z,25.20
2018-05-11T09:24:59.182Z,28.17
2018-05-11T09:27:27.597Z,28.97
2018-05-11T09:29:56.733Z,28.07
2018-05-11T09:32:25.149Z,25.10
2018-05-11T09:34:55.045Z,31.10
2018-05-11T09:37:23.719Z,30.97
2018-05-11T09:39:52.172Z,25.70
2018-05-11T09:42:23.888Z,27.60
2018-05-11T09:44:52.289Z,29.83
2018-05-11T09:47:21.449Z,32.53
2018-05-11T09:49:49.872Z,24.83
2018-05-11T09:52:18.252Z,20.93
2018-05-11T09:54:46.636Z,25.20
2018-05-11T09:57:15.036Z,32.10
2018-05-11T09:59:43.412Z,25.10
2018-05-11T10:02:12.098Z,24.13
2018-05-11T10:04:40.473Z,26.77
2018-05-11T10:07:08.853Z,28.30
2018-05-11T10:09:37.249Z,22.57
2018-05-11T10:12:05.634Z,23.53
2018-05-11T10:14:34.042Z,22.50
2018-05-11T10:17:03.198Z,24.40
2018-05-11T10:19:31.578Z,20.70
2018-05-11T10:21:59.984Z,21.07
2018-05-11T10:24:28.369Z,19.83
2018-05-11T10:26:56.811Z,30.33
2018-05-11T10:29:25.196Z,28.87
2018-05-11T10:31:53.595Z,26.60
2018-05-11T10:34:22.108Z,27.60
2018-05-11T10:36:50.505Z,29.80
2018-05-11T10:39:18.903Z,19.40
2018-05-11T10:41:47.274Z,24.13
2018-05-11T10:44:15.674Z,21.17
2018-05-11T10:46:44.052Z,20.67
2018-05-11T10:49:12.481Z,21.40
2018-05-11T10:51:41.631Z,24.23
2018-05-11T10:54:10.012Z,24.53
2018-05-11T10:56:38.424Z,17.83
2018-05-11T10:59:07.581Z,19.10
2018-05-11T11:01:35.981Z,16.27
2018-05-11T11:04:04.360Z,19.93
2018-05-11T11:06:32.772Z,18.20
2018-05-11T11:09:01.145Z,19.73
2018-05-11T11:11:30.286Z,19.93
2018-05-11T11:13:58.680Z,19.77
2018-05-11T11:16:27.054Z,17.77
2018-05-11T11:18:55.462Z,22.80
2018-05-11T11:21:24.618Z,20.83
2018-05-11T11:23:53.364Z,19.50
2018-05-11T11:26:21.741Z,23.63
2018-05-11T11:28:50.124Z,20.43
2018-05-11T11:31:18.537Z,19.87
2018-05-11T11:33:46.913Z,16.33
2018-05-11T11:36:15.310Z,22.47
2018-05-11T11:38:43.693Z,21.20
2018-05-11T11:41:12.249Z,17.83
2018-05-11T11:43:40.633Z,16.93
2018-05-11T11:46:09.016Z,18.33
2018-05-11T11:48:37.419Z,21.07
2018-05-11T11:51:05.804Z,17.47
2018-05-11T11:53:34.233Z,17.20
2018-05-11T11:56:02.619Z,18.17
2018-05-11T11:58:31.207Z,23.40
2018-05-11T12:00:59.593Z,18.60
2018-05-11T12:03:27.972Z,16.13
2018-05-11T12:05:56.370Z,19.27
2018-05-11T12:08:24.769Z,23.93
2018-05-11T12:10:53.938Z,24.10
2018-05-11T12:13:22.317Z,22.37
2018-05-11T12:15:50.869Z,18.33
2018-05-11T12:18:19.251Z,16.30
2018-05-11T12:20:47.629Z,16.10
2018-05-11T12:23:16.052Z,19.00
2018-05-11T12:25:44.447Z,17.27
2018-05-11T12:28:13.619Z,22.83
2018-05-11T12:30:43.511Z,18.37
2018-05-11T12:33:12.497Z,22.93
2018-05-11T12:35:40.869Z,16.47
2018-05-11T12:38:09.237Z,20.40
2018-05-11T12:40:37.634Z,19.07
2018-05-11T12:43:06.017Z,16.10
2018-05-11T12:45:34.415Z,20.30
2018-05-11T12:48:03.609Z,23.07
2018-05-11T12:50:32.202Z,20.50
2018-05-11T12:53:00.769Z,14.60
2018-05-11T12:55:29.154Z,16.67
2018-05-11T12:57:57.557Z,18.07
2018-05-11T13:00:25.994Z,14.43
2018-05-11T13:02:54.398Z,12.47
2018-05-11T13:05:22.780Z,21.30
2018-05-11T13:07:51.337Z,17.90
2018-05-11T13:10:19.718Z,24.77
2018-05-11T13:12:48.111Z,15.37
2018-05-11T13:15:16.616Z,17.67
2018-05-11T13:17:45.765Z,11.90
2018-05-11T13:20:14.164Z,16.17
2018-05-11T13:22:42.545Z,16.10
2018-05-11T13:25:11.099Z,10.67
2018-05-11T13:27:39.481Z,11.73
2018-05-11T13:30:07.854Z,9.30
2018-05-11T13:32:36.264Z,15.03
2018-05-11T13:35:04.656Z,10.20
2018-05-11T13:37:33.072Z,11.30
2018-05-11T13:40:01.440Z,9.37
2018-05-11T13:42:30.783Z,9.43
2018-05-11T13:44:59.167Z,10.57
2018-05-11T13:47:27.537Z,9.47
2018-05-11T13:49:55.941Z,10.87
2018-05-11T13:52:25.072Z,10.53
2018-05-11T13:54:54.252Z,9.50
2018-05-11T13:57:23.421Z,12.57
2018-05-11T13:59:52.157Z,7.13
2018-05-11T14:02:20.543Z,15.00
2018-05-11T14:04:48.924Z,10.20
2018-05-11T14:07:17.840Z,9.07
2018-05-11T14:09:46.253Z,10.60
2018-05-11T14:12:14.646Z,9.33
2018-05-11T14:14:44.168Z,12.50
2018-05-11T14:17:13.198Z,18.27
2018-05-11T14:19:41.592Z,18.43
2018-05-11T14:22:10.344Z,10.20
2018-05-11T14:24:39.151Z,17.13
2018-05-11T14:27:07.557Z,8.73
2018-05-11T14:29:36.016Z,15.57
2018-05-11T14:32:04.886Z,11.47
2018-05-11T14:34:34.103Z,12.23
2018-05-11T14:37:06.552Z,13.97
2018-05-11T14:39:35.453Z,13.97
2018-05-11T14:42:06.192Z,14.10
2018-05-11T14:44:37.398Z,15.00
2018-05-11T14:47:05.953Z,14.57
2018-05-11T14:49:36.306Z,13.53
2018-05-11T14:52:10.765Z,10.43
2018-05-11T14:54:40.305Z,11.30
2018-05-11T14:57:10.996Z,11.83
2018-05-11T14:59:39.488Z,17.70
2018-05-11T15:02:07.886Z,24.57
2018-05-11T15:04:36.360Z,18.93
2018-05-11T15:07:04.765Z,15.03
2018-05-11T15:09:33.141Z,19.63
2018-05-11T15:12:01.532Z,11.43
2018-05-11T15:14:30.675Z,15.17
2018-05-11T15:16:59.077Z,14.47
2018-05-11T15:19:27.468Z,12.03
2018-05-11T15:21:56.633Z,11.43
2018-05-11T15:24:25.036Z,11.83
2018-05-11T15:26:53.422Z,12.57
2018-05-11T15:29:21.821Z,14.27
2018-05-11T15:31:50.965Z,12.27
2018-05-11T15:34:19.536Z,14.33
2018-05-11T15:36:47.910Z,11.17
2018-05-11T15:39:16.277Z,12.20
2018-05-11T15:41:44.679Z,11.63
2018-05-11T15:44:13.054Z,13.30
2018-05-11T15:46:41.463Z,11.97
2018-05-11T15:49:09.838Z,13.97
2018-05-11T15:51:38.623Z,13.43
2018-05-11T15:54:06.996Z,13.93
2018-05-11T15:56:35.382Z,26.70
2018-05-11T15:59:03.853Z,11.70
2018-05-11T16:01:32.209Z,10.87
2018-05-11T16:04:00.608Z,9.10
2018-05-11T16:06:28.983Z,12.70
2018-05-11T16:08:57.536Z,16.30
2018-05-11T16:11:25.907Z,7.47
2018-05-11T16:13:54.284Z,12.17
2018-05-11T16:16:22.678Z,12.63
2018-05-11T16:18:51.050Z,11.83
2018-05-11T16:21:19.456Z,13.87
2018-05-11T16:23:47.865Z,15.47
2018-05-11T16:26:18.055Z,11.47
2018-05-11T16:28:46.447Z,25.23
2018-05-11T16:31:14.822Z,41.57
2018-05-11T16:33:43.213Z,28.63
2018-05-11T16:36:11.584Z,33.40
2018-05-11T16:38:39.980Z,37.03
2018-05-11T16:41:09.116Z,13.93
2018-05-11T16:43:37.717Z,11.87
2018-05-11T16:46:06.095Z,11.40
2018-05-11T16:48:34.474Z,15.17
2018-05-11T16:51:02.938Z,9.10
2018-05-11T16:53:32.109Z,13.13
2018-05-11T16:56:01.284Z,15.97
2018-05-11T16:58:30.426Z,11.50
2018-05-11T17:00:59.028Z,17.27
2018-05-11T17:03:27.428Z,12.80
2018-05-11T17:05:55.823Z,15.97
2018-05-11T17:08:25.001Z,12.00
2018-05-11T17:10:53.381Z,11.47
2018-05-11T17:13:21.790Z,12.43
2018-05-11T17:15:50.932Z,15.80
2018-05-11T17:18:19.523Z,11.47
2018-05-11T17:20:47.905Z,12.43
2018-05-11T17:23:16.284Z,20.43
2018-05-11T17:25:44.691Z,11.10
2018-05-11T17:28:13.066Z,10.23
2018-05-11T17:30:41.477Z,12.63
2018-05-11T17:33:10.674Z,12.70
2018-05-11T17:35:39.849Z,12.80
2018-05-11T17:38:09.028Z,12.93
2018-05-11T17:40:37.408Z,14.70
2018-05-11T17:43:05.839Z,11.97
2018-05-11T17:45:34.227Z,12.90
2018-05-11T17:48:02.636Z,15.93
2018-05-11T17:50:31.032Z,11.70
2018-05-11T17:52:59.791Z,12.60
2018-05-11T17:55:28.269Z,26.90
2018-05-11T17:57:56.662Z,38.00
2018-05-11T18:00:25.078Z,18.30
2018-05-11T18:02:54.209Z,11.13
2018-05-11T18:05:22.616Z,15.93
2018-05-11T18:07:50.999Z,11.07
2018-05-11T18:10:19.595Z,12.83
2018-05-11T18:12:48.010Z,11.13
2018-05-11T18:15:16.727Z,18.70
2018-05-11T18:17:45.214Z,13.53
2018-05-11T18:20:14.498Z,12.93
2018-05-11T18:22:43.864Z,11.00
2018-05-11T18:25:12.289Z,11.83
2018-05-11T18:27:40.865Z,10.50
2018-05-11T18:30:09.328Z,13.60
2018-05-11T18:32:38.239Z,21.87
2018-05-11T18:35:06.641Z,10.43
2018-05-11T18:37:35.017Z,10.17
2018-05-11T18:40:03.568Z,19.83
2018-05-11T18:42:32.476Z,11.13
2018-05-11T18:45:01.059Z,15.07
2018-05-11T18:47:29.819Z,15.27
2018-05-11T18:49:58.632Z,10.80
2018-05-11T18:52:27.312Z,9.77
2018-05-11T18:54:56.054Z,9.60
2018-05-11T18:57:26.534Z,12.53
2018-05-11T18:59:54.939Z,9.70
2018-05-11T19:02:23.623Z,13.47
2018-05-11T19:04:52.185Z,7.97
2018-05-11T19:07:20.900Z,13.40
2018-05-11T19:09:50.299Z,13.03
2018-05-11T19:12:18.924Z,17.93
2018-05-11T19:14:48.869Z,10.53
2018-05-11T19:17:17.330Z,11.83
2018-05-11T19:19:45.958Z,9.33
2018-05-11T19:22:14.341Z,11.13
2018-05-11T19:24:42.724Z,17.13
2018-05-11T19:27:11.125Z,20.83
2018-05-11T19:29:40.267Z,21.20
2018-05-11T19:32:08.853Z,11.73
2018-05-11T19:34:37.823Z,13.93
2018-05-11T19:37:06.970Z,21.00
2018-05-11T19:39:35.614Z,11.03
2018-05-11T19:42:04.293Z,21.33
2018-05-11T19:44:34.119Z,28.30
2018-05-11T19:47:03.037Z,35.67
2018-05-11T19:49:32.822Z,23.07
2018-05-11T19:52:02.335Z,23.65
2018-05-11T19:54:31.422Z,36.25
2018-05-11T19:57:00.133Z,23.73
2018-05-11T19:59:28.827Z,23.50
2018-05-11T20:01:58.066Z,28.10
2018-05-11T20:04:26.712Z,11.10
2018-05-11T20:06:57.239Z,23.00
2018-05-11T20:09:26.930Z,14.40
2018-05-11T20:11:57.186Z,20.95
2018-05-11T20:14:27.443Z,34.50
2018-05-11T20:16:56.073Z,20.52
2018-05-11T20:19:25.179Z,27.65
2018-05-11T20:21:55.007Z,17.05
2018-05-11T20:24:23.798Z,27.58
2018-05-11T20:26:52.545Z,26.20
2018-05-11T20:29:21.207Z,25.12
2018-05-11T20:31:50.114Z,23.23
2018-05-11T20:34:18.546Z,28.92
2018-05-11T20:36:46.966Z,22.52
2018-05-11T20:39:15.385Z,27.58
2018-05-11T20:41:44.557Z,25.27
2018-05-11T20:44:12.946Z,27.15
2018-05-11T20:46:42.111Z,20.65
2018-05-11T20:49:10.612Z,22.25
2018-05-11T20:51:41.152Z,23.67
2018-05-11T20:54:09.589Z,28.27
2018-05-11T20:56:38.083Z,28.23
2018-05-11T20:59:07.392Z,24.20
2018-05-11T21:01:36.610Z,20.45
2018-05-11T21:04:05.021Z,27.95
2018-05-11T21:06:34.135Z,25.10
2018-05-11T21:09:02.568Z,27.60
2018-05-11T21:11:30.946Z,34.55
2018-05-11T21:13:59.522Z,24.67
2018-05-11T21:16:27.934Z,24.42
2018-05-11T21:18:56.322Z,25.75
2018-05-11T21:21:24.724Z,23.50
2018-05-11T21:23:53.108Z,31.95
2018-05-11T21:26:21.884Z,27.90
2018-05-11T21:28:50.277Z,29.55
2018-05-11T21:31:18.654Z,28.33
2018-05-11T21:33:47.057Z,37.28
2018-05-11T21:36:15.463Z,26.73
2018-05-11T21:38:44.658Z,30.73
2018-05-11T21:41:13.866Z,45.03
2018-05-11T21:43:43.005Z,34.63
2018-05-11T21:46:11.392Z,27.55
2018-05-11T21:48:39.772Z,24.75
2018-05-11T21:51:08.168Z,27.95
2018-05-11T21:53:36.545Z,35.75
2018-05-11T21:56:04.975Z,36.20
2018-05-11T21:58:33.384Z,32.47
2018-05-11T22:01:01.957Z,34.47
2018-05-11T22:03:30.357Z,30.88
2018-05-11T22:05:58.787Z,36.40
2018-05-11T22:08:28.019Z,31.60
2018-05-11T22:10:56.530Z,30.05
2018-05-11T22:13:24.936Z,28.75
2018-05-11T22:15:54.082Z,29.98
2018-05-11T22:18:22.644Z,28.83
2018-05-11T22:20:51.030Z,32.85
2018-05-11T22:23:19.403Z,27.85
2018-05-11T22:25:47.800Z,30.42
2018-05-11T22:28:16.181Z,27.83
2018-05-11T22:30:44.583Z,30.95
2018-05-11T22:33:13.745Z,26.45
2018-05-11T22:35:42.428Z,31.25
2018-05-11T22:38:10.809Z,36.40
2018-05-11T22:40:39.191Z,31.90
2018-05-11T22:43:07.604Z,28.67
2018-05-11T22:45:35.980Z,29.58
2018-05-11T22:48:04.384Z,31.98
2018-05-11T22:50:33.548Z,28.55
2018-05-11T22:53:02.100Z,32.70
2018-05-11T22:55:30.477Z,30.12
2018-05-11T22:57:58.860Z,33.70
2018-05-11T23:00:41.376Z,33.25
2018-05-11T23:03:09.752Z,40.67
2018-05-11T23:05:38.159Z,36.42
2018-05-11T23:08:06.556Z,33.47
2018-05-11T23:10:35.898Z,39.30
2018-05-11T23:13:04.276Z,37.65
2018-05-11T23:15:32.657Z,32.45
2018-05-11T23:18:01.062Z,37.22
2018-05-11T23:20:29.440Z,30.95
2018-05-11T23:22:57.844Z,41.00
2018-05-11T23:25:27.008Z,39.10
2018-05-11T23:27:55.461Z,39.50
2018-05-11T23:30:24.578Z,48.20
2018-05-11T23:32:52.953Z,38.63
2018-05-11T23:35:24.796Z,42.40
2018-05-11T23:37:53.175Z,43.42
2018-05-11T23:40:21.593Z,40.67
2018-05-11T23:42:49.977Z,39.42
2018-05-11T23:45:18.832Z,63.65
2018-05-11T23:47:47.213Z,34.33
2018-05-11T23:50:15.598Z,38.08
2018-05-11T23:52:44.002Z,38.72
2018-05-11T23:55:13.149Z,33.38
2018-05-11T23:57:41.561Z,34.58
